Airfield :
LOGIN :

Register | Disclaimer

   EN    FR    IT 

 










Legend :    VFR   Marginal VFR   IFR   Intensive IFR   Very Intensive IFR
Visi :
Ceiling :
>= 8 km
>= 3000ft
5 to 8 km
1000 to 3000 ft
1500m to 5 km
500 to 1000 ft
800 to 1500m
200 to 500 ft
< 800m
< 200 ft
Symbols :   Thunderstorms  Fog  Heavy snow  Heavy precipitations  Wind > 20 kt
SIGMETs :     Misc.  Thunderstorms  Icing  Turbulence  Mountain Waves  Volcanic Ashes






- Airport Elevation : 93 ft
- IATA code : XRY


LEJR - Jerez

CURRENT METAR :
  • 100330Z 00000KT CAVOK 11/09 Q1014

EXPIRED METARs :
  • 100300Z AUTO VRB01KT CAVOK 11/09 Q1014
  • 100230Z AUTO 30003KT 260V320 CAVOK 12/09 Q1013
  • 100200Z AUTO 29003KT 260V320 CAVOK 12/09 Q1014
  • 100130Z AUTO 31004KT CAVOK 13/09 Q1014
  • 100100Z AUTO 30004KT 280V340 CAVOK 14/09 Q1014

TAF TAF LEJR
Valid from the 10 at 03:00 until the 11 at 03:00 UTC


100200Z 1003/1103 32003KT 9999 SCT020 SCT030 TX21/1014Z TN11/1006Z
PROB30
TEMPO 1007/1012 SHRA SCT020TCU BKN030
BECMG 1011/1013 26016KT
PROB40
TEMPO 1014/1020 26016G28KT
BECMG 1020/1023 32009KT



MET'MAP, your aeronautical weather chart ! - Copyright ORBIFLY December 2007 - Disclaimer

ORBIFLY MET'MAP TEAM :

Programming & Development : Alexandra Zaïnal
Concept & original design : Baudouin d'Aumeries
Assistance for programming : Marc-Olivier Méhu
Technical & hardware support : Manuel Goepfert

Contact : metmap@orbifly.com




SOURCES & CREDITS :

   NOAA